sensor_id;sensor_type;location;lat;lon;timestamp;P1;durP1;ratioP1;P2;durP2;ratioP2
22863;SDS011;11599;49.882;8.680;2023-03-31T00:05:31;5.93;;;1.03;;
22863;SDS011;11599;49.882;8.680;2023-03-31T00:15:59;6.03;;;1.30;;
22863;SDS011;11599;49.882;8.680;2023-03-31T00:26:21;6.27;;;1.40;;
22863;SDS011;11599;49.882;8.680;2023-03-31T00:36:44;8.60;;;1.27;;
22863;SDS011;11599;49.882;8.680;2023-03-31T00:47:09;6.67;;;1.43;;
22863;SDS011;11599;49.882;8.680;2023-03-31T00:57:34;6.80;;;1.50;;
22863;SDS011;11599;49.882;8.680;2023-03-31T01:07:58;8.73;;;1.60;;
22863;SDS011;11599;49.882;8.680;2023-03-31T01:18:22;9.83;;;1.20;;
22863;SDS011;11599;49.882;8.680;2023-03-31T01:28:45;10.20;;;1.10;;
22863;SDS011;11599;49.882;8.680;2023-03-31T01:39:20;8.60;;;1.50;;
22863;SDS011;11599;49.882;8.680;2023-03-31T01:49:49;7.50;;;1.83;;
22863;SDS011;11599;49.882;8.680;2023-03-31T02:00:17;8.47;;;1.70;;
22863;SDS011;11599;49.882;8.680;2023-03-31T02:10:42;8.53;;;1.40;;
22863;SDS011;11599;49.882;8.680;2023-03-31T02:21:05;7.43;;;1.40;;
22863;SDS011;11599;49.882;8.680;2023-03-31T02:31:31;6.75;;;1.70;;
22863;SDS011;11599;49.882;8.680;2023-03-31T02:42:00;9.73;;;1.50;;
22863;SDS011;11599;49.882;8.680;2023-03-31T02:52:39;8.07;;;1.85;;
22863;SDS011;11599;49.882;8.680;2023-03-31T03:03:09;7.00;;;1.67;;
22863;SDS011;11599;49.882;8.680;2023-03-31T03:13:40;12.83;;;2.10;;
22863;SDS011;11599;49.882;8.680;2023-03-31T03:24:07;8.65;;;1.65;;
22863;SDS011;11599;49.882;8.680;2023-03-31T03:34:32;8.17;;;1.40;;
22863;SDS011;11599;49.882;8.680;2023-03-31T03:44:56;10.55;;;1.70;;
22863;SDS011;11599;49.882;8.680;2023-03-31T03:55:22;5.80;;;1.20;;
22863;SDS011;11599;49.882;8.680;2023-03-31T04:05:46;7.63;;;1.30;;
22863;SDS011;11599;49.882;8.680;2023-03-31T05:08:13;3.90;;;0.80;;
22863;SDS011;11599;49.882;8.680;2023-03-31T05:18:35;8.20;;;1.40;;
22863;SDS011;11599;49.882;8.680;2023-03-31T05:29:00;9.27;;;1.50;;
22863;SDS011;11599;49.882;8.680;2023-03-31T05:39:21;7.00;;;1.60;;
22863;SDS011;11599;49.882;8.680;2023-03-31T05:49:44;5.10;;;1.40;;
22863;SDS011;11599;49.882;8.680;2023-03-31T06:00:06;6.13;;;1.70;;
22863;SDS011;11599;49.882;8.680;2023-03-31T06:10:31;6.93;;;1.93;;
22863;SDS011;11599;49.882;8.680;2023-03-31T06:20:55;8.83;;;2.73;;
22863;SDS011;11599;49.882;8.680;2023-03-31T06:31:20;9.20;;;2.87;;
22863;SDS011;11599;49.882;8.680;2023-03-31T06:41:42;7.60;;;3.13;;
22863;SDS011;11599;49.882;8.680;2023-03-31T06:52:12;12.60;;;4.40;;
22863;SDS011;11599;49.882;8.680;2023-03-31T07:02:34;9.65;;;3.22;;
22863;SDS011;11599;49.882;8.680;2023-03-31T07:12:58;8.10;;;2.80;;
22863;SDS011;11599;49.882;8.680;2023-03-31T07:23:20;10.30;;;2.83;;
22863;SDS011;11599;49.882;8.680;2023-03-31T07:33:46;14.57;;;4.77;;
22863;SDS011;11599;49.882;8.680;2023-03-31T07:44:07;15.60;;;4.20;;
22863;SDS011;11599;49.882;8.680;2023-03-31T07:54:30;10.00;;;3.63;;
22863;SDS011;11599;49.882;8.680;2023-03-31T08:04:52;8.43;;;3.20;;
22863;SDS011;11599;49.882;8.680;2023-03-31T08:15:15;10.30;;;2.00;;
22863;SDS011;11599;49.882;8.680;2023-03-31T08:35:55;3.00;;;1.30;;
22863;SDS011;11599;49.882;8.680;2023-03-31T08:46:21;5.17;;;1.40;;
22863;SDS011;11599;49.882;8.680;2023-03-31T08:56:51;5.77;;;2.03;;
22863;SDS011;11599;49.882;8.680;2023-03-31T09:19:36;8.70;;;2.23;;
22863;SDS011;11599;49.882;8.680;2023-03-31T09:30:11;9.20;;;3.20;;
22863;SDS011;11599;49.882;8.680;2023-03-31T09:40:45;8.20;;;2.50;;
22863;SDS011;11599;49.882;8.680;2023-03-31T09:51:51;6.33;;;2.20;;
22863;SDS011;11599;49.882;8.680;2023-03-31T10:13:01;8.10;;;2.00;;
22863;SDS011;11599;49.882;8.680;2023-03-31T10:23:30;6.88;;;1.48;;
22863;SDS011;11599;49.882;8.680;2023-03-31T10:33:53;4.13;;;0.95;;
22863;SDS011;11599;49.882;8.680;2023-03-31T10:44:29;5.50;;;1.40;;
22863;SDS011;11599;49.882;8.680;2023-03-31T10:54:53;8.37;;;1.40;;
22863;SDS011;11599;49.882;8.680;2023-03-31T11:05:17;7.27;;;1.50;;
22863;SDS011;11599;49.882;8.680;2023-03-31T11:15:44;5.33;;;1.30;;
22863;SDS011;11599;49.882;8.680;2023-03-31T11:26:11;9.57;;;1.70;;
22863;SDS011;11599;49.882;8.680;2023-03-31T11:36:40;9.18;;;2.00;;
22863;SDS011;11599;49.882;8.680;2023-03-31T11:47:04;12.27;;;2.17;;
22863;SDS011;11599;49.882;8.680;2023-03-31T11:57:29;10.15;;;1.88;;
22863;SDS011;11599;49.882;8.680;2023-03-31T12:07:54;9.07;;;1.83;;
22863;SDS011;11599;49.882;8.680;2023-03-31T12:18:22;8.13;;;1.73;;
22863;SDS011;11599;49.882;8.680;2023-03-31T12:28:44;8.13;;;1.30;;
22863;SDS011;11599;49.882;8.680;2023-03-31T12:39:12;11.70;;;1.53;;
22863;SDS011;11599;49.882;8.680;2023-03-31T12:50:02;9.23;;;1.50;;
22863;SDS011;11599;49.882;8.680;2023-03-31T13:00:29;7.68;;;1.40;;
22863;SDS011;11599;49.882;8.680;2023-03-31T13:10:52;7.00;;;1.07;;
22863;SDS011;11599;49.882;8.680;2023-03-31T13:21:18;8.53;;;1.40;;
22863;SDS011;11599;49.882;8.680;2023-03-31T13:32:04;4.28;;;0.90;;
22863;SDS011;11599;49.882;8.680;2023-03-31T13:53:20;2.88;;;0.68;;
22863;SDS011;11599;49.882;8.680;2023-03-31T14:03:50;3.97;;;0.47;;
22863;SDS011;11599;49.882;8.680;2023-03-31T14:14:18;3.63;;;1.00;;
22863;SDS011;11599;49.882;8.680;2023-03-31T14:24:40;2.33;;;0.57;;
22863;SDS011;11599;49.882;8.680;2023-03-31T14:35:11;2.45;;;0.52;;
22863;SDS011;11599;49.882;8.680;2023-03-31T14:45:35;5.80;;;1.10;;
22863;SDS011;11599;49.882;8.680;2023-03-31T14:56:00;4.00;;;0.73;;
22863;SDS011;11599;49.882;8.680;2023-03-31T15:06:23;2.80;;;0.90;;
22863;SDS011;11599;49.882;8.680;2023-03-31T15:16:48;5.80;;;1.40;;
22863;SDS011;11599;49.882;8.680;2023-03-31T15:27:12;2.60;;;0.50;;
22863;SDS011;11599;49.882;8.680;2023-03-31T15:37:37;2.87;;;0.50;;
22863;SDS011;11599;49.882;8.680;2023-03-31T15:48:00;2.20;;;0.40;;
22863;SDS011;11599;49.882;8.680;2023-03-31T15:58:44;4.05;;;0.70;;
22863;SDS011;11599;49.882;8.680;2023-03-31T16:09:06;4.05;;;1.00;;
22863;SDS011;11599;49.882;8.680;2023-03-31T16:19:30;6.70;;;1.50;;
22863;SDS011;11599;49.882;8.680;2023-03-31T16:30:03;7.55;;;1.50;;
22863;SDS011;11599;49.882;8.680;2023-03-31T16:40:26;7.23;;;1.40;;
22863;SDS011;11599;49.882;8.680;2023-03-31T16:50:48;7.15;;;1.33;;
22863;SDS011;11599;49.882;8.680;2023-03-31T17:01:11;4.73;;;1.10;;
22863;SDS011;11599;49.882;8.680;2023-03-31T17:11:33;6.13;;;1.10;;
22863;SDS011;11599;49.882;8.680;2023-03-31T17:21:57;6.95;;;1.30;;
22863;SDS011;11599;49.882;8.680;2023-03-31T17:32:21;7.40;;;1.40;;
22863;SDS011;11599;49.882;8.680;2023-03-31T17:42:46;6.00;;;1.20;;
22863;SDS011;11599;49.882;8.680;2023-03-31T17:53:07;4.43;;;1.10;;
22863;SDS011;11599;49.882;8.680;2023-03-31T18:03:30;7.50;;;1.50;;
22863;SDS011;11599;49.882;8.680;2023-03-31T18:13:52;5.35;;;1.17;;
22863;SDS011;11599;49.882;8.680;2023-03-31T18:24:16;4.85;;;1.10;;
22863;SDS011;11599;49.882;8.680;2023-03-31T18:34:38;3.33;;;0.70;;
22863;SDS011;11599;49.882;8.680;2023-03-31T18:45:01;5.00;;;0.80;;
22863;SDS011;11599;49.882;8.680;2023-03-31T18:55:22;3.20;;;0.60;;
22863;SDS011;11599;49.882;8.680;2023-03-31T19:05:45;4.97;;;0.90;;
22863;SDS011;11599;49.882;8.680;2023-03-31T19:16:07;5.47;;;1.10;;
22863;SDS011;11599;49.882;8.680;2023-03-31T19:26:29;5.23;;;1.33;;
22863;SDS011;11599;49.882;8.680;2023-03-31T19:47:18;4.32;;;1.00;;
22863;SDS011;11599;49.882;8.680;2023-03-31T19:57:40;5.90;;;1.35;;
22863;SDS011;11599;49.882;8.680;2023-03-31T20:08:03;4.75;;;1.10;;
22863;SDS011;11599;49.882;8.680;2023-03-31T20:18:25;4.17;;;0.90;;
22863;SDS011;11599;49.882;8.680;2023-03-31T20:28:48;3.70;;;0.98;;
22863;SDS011;11599;49.882;8.680;2023-03-31T20:39:12;3.67;;;1.03;;
22863;SDS011;11599;49.882;8.680;2023-03-31T20:49:35;2.40;;;0.60;;
22863;SDS011;11599;49.882;8.680;2023-03-31T20:59:57;4.70;;;0.80;;
22863;SDS011;11599;49.882;8.680;2023-03-31T21:10:22;4.22;;;1.15;;
22863;SDS011;11599;49.882;8.680;2023-03-31T21:20:47;4.35;;;0.90;;
22863;SDS011;11599;49.882;8.680;2023-03-31T21:31:11;3.80;;;0.90;;
22863;SDS011;11599;49.882;8.680;2023-03-31T21:41:33;6.70;;;1.50;;
22863;SDS011;11599;49.882;8.680;2023-03-31T21:51:56;3.30;;;0.90;;
22863;SDS011;11599;49.882;8.680;2023-03-31T22:02:18;4.83;;;0.83;;
22863;SDS011;11599;49.882;8.680;2023-03-31T22:12:41;6.10;;;1.00;;
22863;SDS011;11599;49.882;8.680;2023-03-31T22:23:02;4.70;;;0.90;;
22863;SDS011;11599;49.882;8.680;2023-03-31T22:33:25;5.80;;;1.00;;
22863;SDS011;11599;49.882;8.680;2023-03-31T22:43:47;7.05;;;1.10;;
22863;SDS011;11599;49.882;8.680;2023-03-31T22:54:11;4.87;;;0.90;;
22863;SDS011;11599;49.882;8.680;2023-03-31T23:04:33;4.10;;;0.95;;
22863;SDS011;11599;49.882;8.680;2023-03-31T23:14:55;5.93;;;1.40;;
22863;SDS011;11599;49.882;8.680;2023-03-31T23:25:17;4.30;;;0.90;;
22863;SDS011;11599;49.882;8.680;2023-03-31T23:35:40;5.50;;;1.00;;
22863;SDS011;11599;49.882;8.680;2023-03-31T23:46:01;4.80;;;0.90;;
22863;SDS011;11599;49.882;8.680;2023-03-31T23:56:26;5.38;;;0.93;;
